Terminal Aerodrome Forecast
Issued by NWS

Home | Current Version | Previous Version | Graphics & Text | Print | Product List | Glossary On
Versions: 1 2 3 4 5 6 7 8 9 10 11 12 13
008
FTUS43 KICT 112322
TAFCNU
TAF
KCNU 112322Z 1200/1224 VRB05KT P6SM SCT250
     FM120900 24006KT P6SM SCT250
     FM121100 30008KT P6SM SCT250
     FM121500 34010KT P6SM SCT250
     FM121800 03007KT P6SM SCT250=

USA.gov is the U.S. government's official web portal to all federal, state and local government web resources and services.